sensor_id;sensor_type;location;lat;lon;timestamp;temperature;humidity
10390;DHT22;5241;47.830;12.972;2022-08-03T00:01:26;19.20;99.90
10390;DHT22;5241;47.830;12.972;2022-08-03T00:03:52;19.20;99.90
10390;DHT22;5241;47.830;12.972;2022-08-03T00:06:18;19.10;99.90
10390;DHT22;5241;47.830;12.972;2022-08-03T00:08:43;19.00;99.90
10390;DHT22;5241;47.830;12.972;2022-08-03T00:11:09;19.10;99.90
10390;DHT22;5241;47.830;12.972;2022-08-03T00:13:35;19.00;99.90
10390;DHT22;5241;47.830;12.972;2022-08-03T00:16:00;19.10;99.90
10390;DHT22;5241;47.830;12.972;2022-08-03T00:18:26;19.10;99.90
10390;DHT22;5241;47.830;12.972;2022-08-03T00:20:51;19.10;99.90
10390;DHT22;5241;47.830;12.972;2022-08-03T00:23:17;19.10;99.90
10390;DHT22;5241;47.830;12.972;2022-08-03T00:25:42;19.10;99.90
10390;DHT22;5241;47.830;12.972;2022-08-03T00:28:08;19.10;99.90
10390;DHT22;5241;47.830;12.972;2022-08-03T00:30:34;19.10;99.90
10390;DHT22;5241;47.830;12.972;2022-08-03T00:33:00;19.10;99.90
10390;DHT22;5241;47.830;12.972;2022-08-03T00:35:27;19.20;99.90
10390;DHT22;5241;47.830;12.972;2022-08-03T00:37:52;19.10;99.90
10390;DHT22;5241;47.830;12.972;2022-08-03T00:40:19;19.10;99.90
10390;DHT22;5241;47.830;12.972;2022-08-03T00:42:54;19.10;99.90
10390;DHT22;5241;47.830;12.972;2022-08-03T00:45:24;19.00;99.90
10390;DHT22;5241;47.830;12.972;2022-08-03T00:47:50;19.00;99.90
10390;DHT22;5241;47.830;12.972;2022-08-03T00:50:17;18.90;99.90
10390;DHT22;5241;47.830;12.972;2022-08-03T00:52:43;18.90;99.90
10390;DHT22;5241;47.830;12.972;2022-08-03T00:55:10;18.90;99.90
10390;DHT22;5241;47.830;12.972;2022-08-03T00:57:36;18.80;99.90
10390;DHT22;5241;47.830;12.972;2022-08-03T01:00:06;18.80;99.90
10390;DHT22;5241;47.830;12.972;2022-08-03T01:02:32;18.70;99.90
10390;DHT22;5241;47.830;12.972;2022-08-03T01:04:57;18.70;99.90
10390;DHT22;5241;47.830;12.972;2022-08-03T01:16:14;18.70;99.90
10390;DHT22;5241;47.830;12.972;2022-08-03T01:27:36;18.60;99.90
10390;DHT22;5241;47.830;12.972;2022-08-03T01:30:08;18.70;99.90
10390;DHT22;5241;47.830;12.972;2022-08-03T01:32:40;18.80;99.90
10390;DHT22;5241;47.830;12.972;2022-08-03T01:35:12;18.80;99.90
10390;DHT22;5241;47.830;12.972;2022-08-03T01:37:49;18.70;99.90
10390;DHT22;5241;47.830;12.972;2022-08-03T01:40:16;18.70;99.90
10390;DHT22;5241;47.830;12.972;2022-08-03T01:42:44;18.70;99.90
10390;DHT22;5241;47.830;12.972;2022-08-03T01:45:12;18.60;99.90
10390;DHT22;5241;47.830;12.972;2022-08-03T01:47:40;18.60;99.90
10390;DHT22;5241;47.830;12.972;2022-08-03T01:50:08;18.60;99.90
10390;DHT22;5241;47.830;12.972;2022-08-03T01:52:37;18.60;99.90
10390;DHT22;5241;47.830;12.972;2022-08-03T01:55:05;18.60;99.90
10390;DHT22;5241;47.830;12.972;2022-08-03T01:57:32;18.50;99.90
10390;DHT22;5241;47.830;12.972;2022-08-03T02:00:00;18.50;99.90
10390;DHT22;5241;47.830;12.972;2022-08-03T02:02:26;18.50;99.90
10390;DHT22;5241;47.830;12.972;2022-08-03T02:04:54;18.50;99.90
10390;DHT22;5241;47.830;12.972;2022-08-03T02:07:21;18.40;99.90
10390;DHT22;5241;47.830;12.972;2022-08-03T02:09:50;18.30;99.90
10390;DHT22;5241;47.830;12.972;2022-08-03T02:12:18;18.30;99.90
10390;DHT22;5241;47.830;12.972;2022-08-03T02:14:44;18.30;99.90
10390;DHT22;5241;47.830;12.972;2022-08-03T02:17:11;18.30;99.90
10390;DHT22;5241;47.830;12.972;2022-08-03T02:19:38;18.20;99.90
10390;DHT22;5241;47.830;12.972;2022-08-03T02:22:08;18.30;99.90
10390;DHT22;5241;47.830;12.972;2022-08-03T02:24:34;18.30;99.90
10390;DHT22;5241;47.830;12.972;2022-08-03T02:27:02;18.30;99.90
10390;DHT22;5241;47.830;12.972;2022-08-03T02:29:33;18.30;99.90
10390;DHT22;5241;47.830;12.972;2022-08-03T02:32:01;18.30;99.90
10390;DHT22;5241;47.830;12.972;2022-08-03T02:34:30;18.30;99.90
10390;DHT22;5241;47.830;12.972;2022-08-03T02:36:59;18.40;99.90
10390;DHT22;5241;47.830;12.972;2022-08-03T02:39:29;18.30;99.90
10390;DHT22;5241;47.830;12.972;2022-08-03T02:41:56;18.30;99.90
10390;DHT22;5241;47.830;12.972;2022-08-03T02:44:27;18.20;99.90
10390;DHT22;5241;47.830;12.972;2022-08-03T02:46:56;18.20;99.90
10390;DHT22;5241;47.830;12.972;2022-08-03T02:49:24;18.20;99.90
10390;DHT22;5241;47.830;12.972;2022-08-03T02:51:52;18.10;99.90
10390;DHT22;5241;47.830;12.972;2022-08-03T02:54:19;18.10;99.90
10390;DHT22;5241;47.830;12.972;2022-08-03T02:56:47;18.10;99.90
10390;DHT22;5241;47.830;12.972;2022-08-03T02:59:14;18.00;99.90
10390;DHT22;5241;47.830;12.972;2022-08-03T03:01:41;18.00;99.90
10390;DHT22;5241;47.830;12.972;2022-08-03T03:04:09;18.00;99.90
10390;DHT22;5241;47.830;12.972;2022-08-03T03:06:36;18.00;99.90
10390;DHT22;5241;47.830;12.972;2022-08-03T03:09:03;18.00;99.90
10390;DHT22;5241;47.830;12.972;2022-08-03T03:11:29;18.00;99.90
10390;DHT22;5241;47.830;12.972;2022-08-03T03:13:56;18.00;99.90
10390;DHT22;5241;47.830;12.972;2022-08-03T03:16:22;17.90;99.90
10390;DHT22;5241;47.830;12.972;2022-08-03T03:18:48;17.90;99.90
10390;DHT22;5241;47.830;12.972;2022-08-03T03:21:17;17.90;99.90
10390;DHT22;5241;47.830;12.972;2022-08-03T03:23:45;18.00;99.90
10390;DHT22;5241;47.830;12.972;2022-08-03T03:26:13;18.00;99.90
10390;DHT22;5241;47.830;12.972;2022-08-03T03:28:39;18.00;99.90
10390;DHT22;5241;47.830;12.972;2022-08-03T03:31:06;18.00;99.90
10390;DHT22;5241;47.830;12.972;2022-08-03T03:33:33;18.00;99.90
10390;DHT22;5241;47.830;12.972;2022-08-03T03:35:59;18.00;99.90
10390;DHT22;5241;47.830;12.972;2022-08-03T03:38:24;18.00;99.90
10390;DHT22;5241;47.830;12.972;2022-08-03T03:40:50;18.00;99.90
10390;DHT22;5241;47.830;12.972;2022-08-03T03:43:16;18.00;99.90
10390;DHT22;5241;47.830;12.972;2022-08-03T03:45:43;17.90;99.90
10390;DHT22;5241;47.830;12.972;2022-08-03T03:48:09;18.00;99.90
10390;DHT22;5241;47.830;12.972;2022-08-03T03:50:36;18.00;99.90
10390;DHT22;5241;47.830;12.972;2022-08-03T03:53:02;18.00;99.90
10390;DHT22;5241;47.830;12.972;2022-08-03T03:55:29;18.00;99.90
10390;DHT22;5241;47.830;12.972;2022-08-03T03:57:55;17.90;99.90
10390;DHT22;5241;47.830;12.972;2022-08-03T04:00:21;17.90;99.90
10390;DHT22;5241;47.830;12.972;2022-08-03T04:02:47;17.90;99.90
10390;DHT22;5241;47.830;12.972;2022-08-03T04:05:13;17.90;99.90
10390;DHT22;5241;47.830;12.972;2022-08-03T04:08:05;17.90;99.90
10390;DHT22;5241;47.830;12.972;2022-08-03T04:11:13;17.90;99.90
10390;DHT22;5241;47.830;12.972;2022-08-03T04:16:46;18.00;99.90
10390;DHT22;5241;47.830;12.972;2022-08-03T04:19:23;17.90;99.90
10390;DHT22;5241;47.830;12.972;2022-08-03T04:21:53;18.00;99.90
10390;DHT22;5241;47.830;12.972;2022-08-03T04:24:21;18.00;99.90
10390;DHT22;5241;47.830;12.972;2022-08-03T04:26:47;18.10;99.90
10390;DHT22;5241;47.830;12.972;2022-08-03T04:29:14;18.00;99.90
10390;DHT22;5241;47.830;12.972;2022-08-03T04:31:41;18.00;99.90
10390;DHT22;5241;47.830;12.972;2022-08-03T04:34:07;18.00;99.90
10390;DHT22;5241;47.830;12.972;2022-08-03T04:36:37;18.10;99.90
10390;DHT22;5241;47.830;12.972;2022-08-03T04:39:07;18.20;99.90
10390;DHT22;5241;47.830;12.972;2022-08-03T04:41:34;18.20;99.90
10390;DHT22;5241;47.830;12.972;2022-08-03T04:44:01;18.10;99.90
10390;DHT22;5241;47.830;12.972;2022-08-03T04:46:31;18.20;99.90
10390;DHT22;5241;47.830;12.972;2022-08-03T04:48:58;18.30;99.90
10390;DHT22;5241;47.830;12.972;2022-08-03T04:51:25;18.30;99.90
10390;DHT22;5241;47.830;12.972;2022-08-03T04:53:51;18.30;99.90
10390;DHT22;5241;47.830;12.972;2022-08-03T04:56:16;18.40;99.90
10390;DHT22;5241;47.830;12.972;2022-08-03T04:58:42;18.40;99.90
10390;DHT22;5241;47.830;12.972;2022-08-03T05:01:08;18.50;99.90
10390;DHT22;5241;47.830;12.972;2022-08-03T05:03:33;18.50;99.90
10390;DHT22;5241;47.830;12.972;2022-08-03T05:05:59;18.50;99.90
10390;DHT22;5241;47.830;12.972;2022-08-03T05:08:24;18.50;99.90
10390;DHT22;5241;47.830;12.972;2022-08-03T05:10:50;18.60;99.90
10390;DHT22;5241;47.830;12.972;2022-08-03T05:13:16;18.70;99.90
10390;DHT22;5241;47.830;12.972;2022-08-03T05:15:41;18.70;99.90
10390;DHT22;5241;47.830;12.972;2022-08-03T05:18:07;18.80;99.90
10390;DHT22;5241;47.830;12.972;2022-08-03T05:20:32;18.90;99.90
10390;DHT22;5241;47.830;12.972;2022-08-03T05:22:58;18.90;99.90
10390;DHT22;5241;47.830;12.972;2022-08-03T05:25:26;19.00;99.90
10390;DHT22;5241;47.830;12.972;2022-08-03T05:27:52;19.10;99.90
10390;DHT22;5241;47.830;12.972;2022-08-03T05:30:18;19.20;99.90
10390;DHT22;5241;47.830;12.972;2022-08-03T05:32:43;19.30;99.90
10390;DHT22;5241;47.830;12.972;2022-08-03T05:35:09;19.40;99.90
10390;DHT22;5241;47.830;12.972;2022-08-03T05:37:35;19.50;99.90
10390;DHT22;5241;47.830;12.972;2022-08-03T05:40:01;19.60;99.90
10390;DHT22;5241;47.830;12.972;2022-08-03T05:42:26;19.70;99.90
10390;DHT22;5241;47.830;12.972;2022-08-03T05:44:52;19.80;99.90
10390;DHT22;5241;47.830;12.972;2022-08-03T05:47:17;20.00;99.90
10390;DHT22;5241;47.830;12.972;2022-08-03T05:49:43;20.10;99.90
10390;DHT22;5241;47.830;12.972;2022-08-03T05:52:08;20.30;99.90
10390;DHT22;5241;47.830;12.972;2022-08-03T05:54:34;20.50;99.90
10390;DHT22;5241;47.830;12.972;2022-08-03T05:56:59;20.90;99.90
10390;DHT22;5241;47.830;12.972;2022-08-03T05:59:25;21.30;99.90
10390;DHT22;5241;47.830;12.972;2022-08-03T06:01:51;21.60;99.90
10390;DHT22;5241;47.830;12.972;2022-08-03T06:04:16;21.90;99.90
10390;DHT22;5241;47.830;12.972;2022-08-03T06:06:42;22.40;99.90
10390;DHT22;5241;47.830;12.972;2022-08-03T06:09:08;22.80;99.90
10390;DHT22;5241;47.830;12.972;2022-08-03T06:11:35;23.10;99.90
10390;DHT22;5241;47.830;12.972;2022-08-03T06:14:01;23.60;99.90
10390;DHT22;5241;47.830;12.972;2022-08-03T06:16:27;23.90;99.90
10390;DHT22;5241;47.830;12.972;2022-08-03T06:18:52;24.30;99.90
10390;DHT22;5241;47.830;12.972;2022-08-03T06:21:18;24.60;99.90
10390;DHT22;5241;47.830;12.972;2022-08-03T06:23:44;25.00;99.20
10390;DHT22;5241;47.830;12.972;2022-08-03T06:26:10;25.20;98.20
10390;DHT22;5241;47.830;12.972;2022-08-03T06:28:36;25.30;97.30
10390;DHT22;5241;47.830;12.972;2022-08-03T06:31:02;25.70;95.80
10390;DHT22;5241;47.830;12.972;2022-08-03T06:33:28;25.80;95.20
10390;DHT22;5241;47.830;12.972;2022-08-03T06:35:53;25.80;95.00
10390;DHT22;5241;47.830;12.972;2022-08-03T06:38:19;26.30;93.70
10390;DHT22;5241;47.830;12.972;2022-08-03T06:40:44;26.50;92.70
10390;DHT22;5241;47.830;12.972;2022-08-03T06:43:11;26.70;91.20
10390;DHT22;5241;47.830;12.972;2022-08-03T06:45:38;26.70;91.10
10390;DHT22;5241;47.830;12.972;2022-08-03T06:48:08;26.90;90.80
10390;DHT22;5241;47.830;12.972;2022-08-03T06:50:35;27.50;88.60
10390;DHT22;5241;47.830;12.972;2022-08-03T06:53:02;27.50;86.50
10390;DHT22;5241;47.830;12.972;2022-08-03T06:55:29;27.30;86.30
10390;DHT22;5241;47.830;12.972;2022-08-03T06:57:55;27.30;85.40
10390;DHT22;5241;47.830;12.972;2022-08-03T07:00:20;27.40;85.50
10390;DHT22;5241;47.830;12.972;2022-08-03T07:02:46;27.20;84.80
10390;DHT22;5241;47.830;12.972;2022-08-03T07:05:12;27.50;85.60
10390;DHT22;5241;47.830;12.972;2022-08-03T07:07:39;27.70;84.90
10390;DHT22;5241;47.830;12.972;2022-08-03T07:10:06;27.50;82.80
10390;DHT22;5241;47.830;12.972;2022-08-03T07:12:33;27.70;81.80
10390;DHT22;5241;47.830;12.972;2022-08-03T07:15:00;27.90;81.50
10390;DHT22;5241;47.830;12.972;2022-08-03T07:17:30;28.40;81.00
10390;DHT22;5241;47.830;12.972;2022-08-03T07:19:56;28.30;80.60
10390;DHT22;5241;47.830;12.972;2022-08-03T07:22:22;28.60;77.30
10390;DHT22;5241;47.830;12.972;2022-08-03T07:24:48;28.90;77.30
10390;DHT22;5241;47.830;12.972;2022-08-03T07:27:15;29.00;76.50
10390;DHT22;5241;47.830;12.972;2022-08-03T07:29:40;28.80;75.10
10390;DHT22;5241;47.830;12.972;2022-08-03T07:32:06;28.80;75.00
10390;DHT22;5241;47.830;12.972;2022-08-03T07:34:31;28.60;75.40
10390;DHT22;5241;47.830;12.972;2022-08-03T07:36:57;28.70;74.60
10390;DHT22;5241;47.830;12.972;2022-08-03T07:39:22;29.10;74.10
10390;DHT22;5241;47.830;12.972;2022-08-03T07:41:48;29.20;72.60
10390;DHT22;5241;47.830;12.972;2022-08-03T07:44:19;29.10;71.70
10390;DHT22;5241;47.830;12.972;2022-08-03T07:46:45;29.50;72.20
10390;DHT22;5241;47.830;12.972;2022-08-03T07:49:11;29.50;71.40
10390;DHT22;5241;47.830;12.972;2022-08-03T07:51:37;29.40;72.20
10390;DHT22;5241;47.830;12.972;2022-08-03T07:54:03;29.40;71.90
10390;DHT22;5241;47.830;12.972;2022-08-03T07:56:28;29.60;70.80
10390;DHT22;5241;47.830;12.972;2022-08-03T07:58:54;29.80;69.80
10390;DHT22;5241;47.830;12.972;2022-08-03T08:01:20;29.80;69.50
10390;DHT22;5241;47.830;12.972;2022-08-03T08:03:47;29.80;68.90
10390;DHT22;5241;47.830;12.972;2022-08-03T08:06:13;30.30;69.20
10390;DHT22;5241;47.830;12.972;2022-08-03T08:08:39;30.40;67.90
10390;DHT22;5241;47.830;12.972;2022-08-03T08:11:05;30.50;66.90
10390;DHT22;5241;47.830;12.972;2022-08-03T08:13:30;30.20;68.40
10390;DHT22;5241;47.830;12.972;2022-08-03T08:15:56;30.50;66.60
10390;DHT22;5241;47.830;12.972;2022-08-03T08:18:22;30.50;66.60
10390;DHT22;5241;47.830;12.972;2022-08-03T08:20:54;30.40;66.30
10390;DHT22;5241;47.830;12.972;2022-08-03T08:23:19;30.00;66.80
10390;DHT22;5241;47.830;12.972;2022-08-03T08:25:48;29.90;68.30
10390;DHT22;5241;47.830;12.972;2022-08-03T08:28:16;30.60;66.30
10390;DHT22;5241;47.830;12.972;2022-08-03T08:30:42;30.70;65.70
10390;DHT22;5241;47.830;12.972;2022-08-03T08:33:08;30.60;66.40
10390;DHT22;5241;47.830;12.972;2022-08-03T08:35:33;30.60;66.00
10390;DHT22;5241;47.830;12.972;2022-08-03T08:37:59;30.90;67.20
10390;DHT22;5241;47.830;12.972;2022-08-03T08:40:26;30.90;65.90
10390;DHT22;5241;47.830;12.972;2022-08-03T08:42:52;30.90;65.10
10390;DHT22;5241;47.830;12.972;2022-08-03T08:45:18;29.80;69.40
10390;DHT22;5241;47.830;12.972;2022-08-03T08:47:46;30.30;67.30
10390;DHT22;5241;47.830;12.972;2022-08-03T08:50:13;30.90;66.80
10390;DHT22;5241;47.830;12.972;2022-08-03T08:52:40;31.30;65.10
10390;DHT22;5241;47.830;12.972;2022-08-03T08:55:10;31.20;65.50
10390;DHT22;5241;47.830;12.972;2022-08-03T08:57:47;31.30;65.00
10390;DHT22;5241;47.830;12.972;2022-08-03T09:00:14;31.00;64.80
10390;DHT22;5241;47.830;12.972;2022-08-03T09:02:41;30.80;64.20
10390;DHT22;5241;47.830;12.972;2022-08-03T09:07:41;31.20;65.60
10390;DHT22;5241;47.830;12.972;2022-08-03T09:10:08;31.20;64.10
10390;DHT22;5241;47.830;12.972;2022-08-03T09:12:45;31.40;62.80
10390;DHT22;5241;47.830;12.972;2022-08-03T09:15:22;30.90;62.70
10390;DHT22;5241;47.830;12.972;2022-08-03T09:17:49;31.60;61.50
10390;DHT22;5241;47.830;12.972;2022-08-03T09:20:16;31.60;62.10
10390;DHT22;5241;47.830;12.972;2022-08-03T09:23:01;31.40;60.30
10390;DHT22;5241;47.830;12.972;2022-08-03T09:25:37;31.20;63.70
10390;DHT22;5241;47.830;12.972;2022-08-03T09:28:09;30.90;65.30
10390;DHT22;5241;47.830;12.972;2022-08-03T09:30:37;31.60;63.70
10390;DHT22;5241;47.830;12.972;2022-08-03T09:33:05;32.10;64.20
10390;DHT22;5241;47.830;12.972;2022-08-03T09:35:31;32.20;62.50
10390;DHT22;5241;47.830;12.972;2022-08-03T09:40:39;31.10;64.70
10390;DHT22;5241;47.830;12.972;2022-08-03T09:43:06;31.10;64.20
10390;DHT22;5241;47.830;12.972;2022-08-03T09:45:35;31.30;64.80
10390;DHT22;5241;47.830;12.972;2022-08-03T09:50:47;31.50;66.00
10390;DHT22;5241;47.830;12.972;2022-08-03T09:53:14;31.50;63.70
10390;DHT22;5241;47.830;12.972;2022-08-03T09:56:10;31.30;65.70
10390;DHT22;5241;47.830;12.972;2022-08-03T09:58:44;31.30;64.90
10390;DHT22;5241;47.830;12.972;2022-08-03T10:01:10;31.80;65.20
10390;DHT22;5241;47.830;12.972;2022-08-03T10:03:38;31.50;66.70
10390;DHT22;5241;47.830;12.972;2022-08-03T10:06:15;31.80;64.50
10390;DHT22;5241;47.830;12.972;2022-08-03T10:08:41;31.90;63.60
10390;DHT22;5241;47.830;12.972;2022-08-03T10:11:06;31.80;65.20
10390;DHT22;5241;47.830;12.972;2022-08-03T10:13:32;31.90;64.10
10390;DHT22;5241;47.830;12.972;2022-08-03T10:15:58;31.90;64.60
10390;DHT22;5241;47.830;12.972;2022-08-03T10:18:24;31.80;61.60
10390;DHT22;5241;47.830;12.972;2022-08-03T10:20:51;32.10;64.00
10390;DHT22;5241;47.830;12.972;2022-08-03T10:23:18;32.30;62.50
10390;DHT22;5241;47.830;12.972;2022-08-03T10:25:52;32.50;61.80
10390;DHT22;5241;47.830;12.972;2022-08-03T10:28:20;32.50;61.00
10390;DHT22;5241;47.830;12.972;2022-08-03T10:30:50;32.20;62.70
10390;DHT22;5241;47.830;12.972;2022-08-03T10:33:23;32.60;63.90
10390;DHT22;5241;47.830;12.972;2022-08-03T10:35:53;33.20;61.40
10390;DHT22;5241;47.830;12.972;2022-08-03T10:38:24;32.70;62.20
10390;DHT22;5241;47.830;12.972;2022-08-03T10:40:53;32.60;63.20
10390;DHT22;5241;47.830;12.972;2022-08-03T10:43:24;32.70;59.80
10390;DHT22;5241;47.830;12.972;2022-08-03T10:45:50;33.00;59.60
10390;DHT22;5241;47.830;12.972;2022-08-03T10:48:17;33.00;57.80
10390;DHT22;5241;47.830;12.972;2022-08-03T10:50:44;33.20;55.80
10390;DHT22;5241;47.830;12.972;2022-08-03T10:53:09;33.50;56.70
10390;DHT22;5241;47.830;12.972;2022-08-03T10:55:38;33.40;56.80
10390;DHT22;5241;47.830;12.972;2022-08-03T11:01:08;34.10;54.20
10390;DHT22;5241;47.830;12.972;2022-08-03T11:06:18;34.10;54.40
10390;DHT22;5241;47.830;12.972;2022-08-03T11:08:45;33.90;52.60
10390;DHT22;5241;47.830;12.972;2022-08-03T11:16:29;33.50;57.40
10390;DHT22;5241;47.830;12.972;2022-08-03T11:19:07;33.70;54.00
10390;DHT22;5241;47.830;12.972;2022-08-03T11:27:22;34.70;48.50
10390;DHT22;5241;47.830;12.972;2022-08-03T11:30:09;35.30;48.40
10390;DHT22;5241;47.830;12.972;2022-08-03T11:35:16;35.10;50.80
10390;DHT22;5241;47.830;12.972;2022-08-03T11:45:32;36.00;48.40
10390;DHT22;5241;47.830;12.972;2022-08-03T11:48:22;35.20;48.70
10390;DHT22;5241;47.830;12.972;2022-08-03T11:50:47;35.30;47.60
10390;DHT22;5241;47.830;12.972;2022-08-03T11:53:15;35.80;44.40
10390;DHT22;5241;47.830;12.972;2022-08-03T11:55:42;36.00;46.40
10390;DHT22;5241;47.830;12.972;2022-08-03T11:58:21;35.90;45.80
10390;DHT22;5241;47.830;12.972;2022-08-03T12:00:48;36.00;48.20
10390;DHT22;5241;47.830;12.972;2022-08-03T12:03:16;35.50;46.40
10390;DHT22;5241;47.830;12.972;2022-08-03T12:05:46;35.50;48.70
10390;DHT22;5241;47.830;12.972;2022-08-03T12:08:14;36.10;46.20
10390;DHT22;5241;47.830;12.972;2022-08-03T12:10:49;35.90;48.30
10390;DHT22;5241;47.830;12.972;2022-08-03T12:13:16;35.20;48.50
10390;DHT22;5241;47.830;12.972;2022-08-03T12:15:41;35.40;48.80
10390;DHT22;5241;47.830;12.972;2022-08-03T12:18:17;35.60;47.30
10390;DHT22;5241;47.830;12.972;2022-08-03T12:20:44;36.00;48.00
10390;DHT22;5241;47.830;12.972;2022-08-03T12:23:10;35.80;47.00
10390;DHT22;5241;47.830;12.972;2022-08-03T12:25:38;35.90;46.10
10390;DHT22;5241;47.830;12.972;2022-08-03T12:28:11;36.20;45.90
10390;DHT22;5241;47.830;12.972;2022-08-03T12:30:39;35.90;45.30
10390;DHT22;5241;47.830;12.972;2022-08-03T12:35:46;36.30;44.40
10390;DHT22;5241;47.830;12.972;2022-08-03T12:38:12;36.30;44.40
10390;DHT22;5241;47.830;12.972;2022-08-03T12:40:38;36.10;44.30
10390;DHT22;5241;47.830;12.972;2022-08-03T12:43:12;36.30;45.90
10390;DHT22;5241;47.830;12.972;2022-08-03T12:45:38;36.30;44.80
10390;DHT22;5241;47.830;12.972;2022-08-03T12:48:08;36.50;43.30
10390;DHT22;5241;47.830;12.972;2022-08-03T12:50:36;36.70;44.50
10390;DHT22;5241;47.830;12.972;2022-08-03T12:53:04;36.30;45.20
10390;DHT22;5241;47.830;12.972;2022-08-03T12:55:31;36.20;45.20
10390;DHT22;5241;47.830;12.972;2022-08-03T12:58:05;36.20;45.10
10390;DHT22;5241;47.830;12.972;2022-08-03T13:00:31;36.40;45.00
10390;DHT22;5241;47.830;12.972;2022-08-03T13:03:02;36.50;45.00
10390;DHT22;5241;47.830;12.972;2022-08-03T13:05:28;36.90;44.80
10390;DHT22;5241;47.830;12.972;2022-08-03T13:07:54;36.80;44.30
10390;DHT22;5241;47.830;12.972;2022-08-03T13:10:31;36.80;44.60
10390;DHT22;5241;47.830;12.972;2022-08-03T13:12:57;36.70;44.20
10390;DHT22;5241;47.830;12.972;2022-08-03T13:15:25;36.80;43.30
10390;DHT22;5241;47.830;12.972;2022-08-03T13:17:53;36.80;43.90
10390;DHT22;5241;47.830;12.972;2022-08-03T13:20:19;36.80;45.70
10390;DHT22;5241;47.830;12.972;2022-08-03T13:22:48;37.00;43.60
10390;DHT22;5241;47.830;12.972;2022-08-03T13:25:14;36.80;43.50
10390;DHT22;5241;47.830;12.972;2022-08-03T13:27:39;37.00;43.70
10390;DHT22;5241;47.830;12.972;2022-08-03T13:30:07;37.30;42.40
10390;DHT22;5241;47.830;12.972;2022-08-03T13:32:33;37.30;43.90
10390;DHT22;5241;47.830;12.972;2022-08-03T13:34:59;37.30;43.50
10390;DHT22;5241;47.830;12.972;2022-08-03T13:37:25;37.10;42.80
10390;DHT22;5241;47.830;12.972;2022-08-03T13:39:50;36.70;45.30
10390;DHT22;5241;47.830;12.972;2022-08-03T13:42:16;37.20;44.90
10390;DHT22;5241;47.830;12.972;2022-08-03T13:44:42;36.90;45.20
10390;DHT22;5241;47.830;12.972;2022-08-03T13:47:07;37.20;44.30
10390;DHT22;5241;47.830;12.972;2022-08-03T13:49:33;36.90;44.90
10390;DHT22;5241;47.830;12.972;2022-08-03T13:51:58;37.20;43.60
10390;DHT22;5241;47.830;12.972;2022-08-03T13:54:24;37.30;44.10
10390;DHT22;5241;47.830;12.972;2022-08-03T13:56:50;37.10;44.00
10390;DHT22;5241;47.830;12.972;2022-08-03T13:59:19;37.20;43.90
10390;DHT22;5241;47.830;12.972;2022-08-03T14:01:46;37.20;44.30
10390;DHT22;5241;47.830;12.972;2022-08-03T14:04:11;37.00;45.20
10390;DHT22;5241;47.830;12.972;2022-08-03T14:06:37;36.40;45.70
10390;DHT22;5241;47.830;12.972;2022-08-03T14:09:03;36.80;44.90
10390;DHT22;5241;47.830;12.972;2022-08-03T14:11:28;37.00;45.20
10390;DHT22;5241;47.830;12.972;2022-08-03T14:13:54;36.80;45.90
10390;DHT22;5241;47.830;12.972;2022-08-03T14:16:20;36.60;45.60
10390;DHT22;5241;47.830;12.972;2022-08-03T14:18:45;36.30;44.70
10390;DHT22;5241;47.830;12.972;2022-08-03T14:21:11;36.50;45.60
10390;DHT22;5241;47.830;12.972;2022-08-03T14:23:36;36.70;44.50
10390;DHT22;5241;47.830;12.972;2022-08-03T14:26:03;36.90;45.30
10390;DHT22;5241;47.830;12.972;2022-08-03T14:28:29;36.90;44.40
10390;DHT22;5241;47.830;12.972;2022-08-03T14:30:55;36.80;45.50
10390;DHT22;5241;47.830;12.972;2022-08-03T14:33:41;36.80;46.00
10390;DHT22;5241;47.830;12.972;2022-08-03T14:36:06;37.30;44.10
10390;DHT22;5241;47.830;12.972;2022-08-03T14:38:32;37.10;44.20
10390;DHT22;5241;47.830;12.972;2022-08-03T14:40:57;36.80;45.10
10390;DHT22;5241;47.830;12.972;2022-08-03T14:43:23;36.40;45.50
10390;DHT22;5241;47.830;12.972;2022-08-03T14:45:50;36.10;46.60
10390;DHT22;5241;47.830;12.972;2022-08-03T14:48:18;35.70;47.20
10390;DHT22;5241;47.830;12.972;2022-08-03T14:50:44;36.40;46.40
10390;DHT22;5241;47.830;12.972;2022-08-03T14:53:10;36.90;44.50
10390;DHT22;5241;47.830;12.972;2022-08-03T14:55:35;36.90;42.90
10390;DHT22;5241;47.830;12.972;2022-08-03T14:58:01;37.20;43.30
10390;DHT22;5241;47.830;12.972;2022-08-03T15:00:31;37.30;41.90
10390;DHT22;5241;47.830;12.972;2022-08-03T15:02:56;37.00;43.60
10390;DHT22;5241;47.830;12.972;2022-08-03T15:05:22;37.00;43.50
10390;DHT22;5241;47.830;12.972;2022-08-03T15:07:47;37.00;43.50
10390;DHT22;5241;47.830;12.972;2022-08-03T15:10:13;36.70;44.80
10390;DHT22;5241;47.830;12.972;2022-08-03T15:12:38;36.80;41.90
10390;DHT22;5241;47.830;12.972;2022-08-03T15:15:04;37.20;42.30
10390;DHT22;5241;47.830;12.972;2022-08-03T15:17:30;37.50;41.20
10390;DHT22;5241;47.830;12.972;2022-08-03T15:19:55;37.50;41.20
10390;DHT22;5241;47.830;12.972;2022-08-03T15:22:21;37.40;41.40
10390;DHT22;5241;47.830;12.972;2022-08-03T15:24:47;36.90;42.20
10390;DHT22;5241;47.830;12.972;2022-08-03T15:27:12;36.80;42.30
10390;DHT22;5241;47.830;12.972;2022-08-03T15:29:38;36.90;43.00
10390;DHT22;5241;47.830;12.972;2022-08-03T15:32:03;37.60;41.30
10390;DHT22;5241;47.830;12.972;2022-08-03T15:34:29;37.90;42.10
10390;DHT22;5241;47.830;12.972;2022-08-03T15:36:55;37.80;42.00
10390;DHT22;5241;47.830;12.972;2022-08-03T15:39:20;37.50;42.30
10390;DHT22;5241;47.830;12.972;2022-08-03T15:41:46;36.00;42.30
10390;DHT22;5241;47.830;12.972;2022-08-03T15:44:11;35.40;44.90
10390;DHT22;5241;47.830;12.972;2022-08-03T15:46:37;34.60;45.30
10390;DHT22;5241;47.830;12.972;2022-08-03T15:49:02;33.90;44.60
10390;DHT22;5241;47.830;12.972;2022-08-03T15:51:28;33.40;47.30
10390;DHT22;5241;47.830;12.972;2022-08-03T15:53:54;33.50;46.60
10390;DHT22;5241;47.830;12.972;2022-08-03T15:56:21;34.10;45.30
10390;DHT22;5241;47.830;12.972;2022-08-03T15:58:47;35.50;43.20
10390;DHT22;5241;47.830;12.972;2022-08-03T16:01:13;35.60;43.60
10390;DHT22;5241;47.830;12.972;2022-08-03T16:03:39;36.00;44.30
10390;DHT22;5241;47.830;12.972;2022-08-03T16:06:05;35.60;45.30
10390;DHT22;5241;47.830;12.972;2022-08-03T16:08:32;34.70;47.30
10390;DHT22;5241;47.830;12.972;2022-08-03T16:10:58;33.60;49.20
10390;DHT22;5241;47.830;12.972;2022-08-03T16:13:24;32.50;51.10
10390;DHT22;5241;47.830;12.972;2022-08-03T16:15:50;31.70;53.00
10390;DHT22;5241;47.830;12.972;2022-08-03T16:18:17;31.00;53.70
10390;DHT22;5241;47.830;12.972;2022-08-03T16:20:42;30.70;54.70
10390;DHT22;5241;47.830;12.972;2022-08-03T16:23:09;30.40;56.10
10390;DHT22;5241;47.830;12.972;2022-08-03T16:25:35;30.10;56.00
10390;DHT22;5241;47.830;12.972;2022-08-03T16:28:01;29.90;55.50
10390;DHT22;5241;47.830;12.972;2022-08-03T16:30:27;29.60;56.90